sensor_id;sensor_type;location;lat;lon;timestamp;pressure;altitude;pressure_sealevel;temperature;humidity
53900;BME280;40509;32.858;-116.858;2023-07-28T00:01:35;97771.75;;;30.10;44.14
53900;BME280;40509;32.858;-116.858;2023-07-28T00:04:02;97771.56;;;30.12;44.10
53900;BME280;40509;32.858;-116.858;2023-07-28T00:06:33;97761.94;;;30.10;44.29
53900;BME280;40509;32.858;-116.858;2023-07-28T00:09:00;97760.09;;;30.11;44.30
53900;BME280;40509;32.858;-116.858;2023-07-28T00:11:27;97761.94;;;30.10;44.21
53900;BME280;40509;32.858;-116.858;2023-07-28T00:13:54;97761.94;;;30.10;44.38
53900;BME280;40509;32.858;-116.858;2023-07-28T00:16:21;97762.31;;;30.14;44.29
53900;BME280;40509;32.858;-116.858;2023-07-28T00:18:47;97764.78;;;30.16;44.65
53900;BME280;40509;32.858;-116.858;2023-07-28T00:21:14;97766.41;;;30.17;44.33
53900;BME280;40509;32.858;-116.858;2023-07-28T00:23:41;97759.84;;;30.19;44.65
53900;BME280;40509;32.858;-116.858;2023-07-28T00:26:07;97765.59;;;30.16;44.28
53900;BME280;40509;32.858;-116.858;2023-07-28T00:28:34;97760.50;;;30.15;44.51
53900;BME280;40509;32.858;-116.858;2023-07-28T00:31:01;97755.75;;;30.17;44.35
53900;BME280;40509;32.858;-116.858;2023-07-28T00:33:28;97754.72;;;30.18;44.55
53900;BME280;40509;32.858;-116.858;2023-07-28T00:35:54;97754.72;;;30.18;44.56
53900;BME280;40509;32.858;-116.858;2023-07-28T00:38:22;97750.22;;;30.18;44.45
53900;BME280;40509;32.858;-116.858;2023-07-28T00:40:49;97755.53;;;30.18;44.58
53900;BME280;40509;32.858;-116.858;2023-07-28T00:43:16;97760.69;;;30.20;44.32
53900;BME280;40509;32.858;-116.858;2023-07-28T00:45:43;97761.09;;;30.17;44.39
53900;BME280;40509;32.858;-116.858;2023-07-28T00:48:13;97765.78;;;30.21;44.39
53900;BME280;40509;32.858;-116.858;2023-07-28T00:50:41;97759.03;;;30.19;44.39
53900;BME280;40509;32.858;-116.858;2023-07-28T00:53:08;97762.94;;;30.16;44.46
53900;BME280;40509;32.858;-116.858;2023-07-28T00:55:35;97763.97;;;30.15;44.60
53900;BME280;40509;32.858;-116.858;2023-07-28T00:58:02;97763.34;;;30.20;44.61
53900;BME280;40509;32.858;-116.858;2023-07-28T01:00:29;97765.16;;;30.19;44.44
53900;BME280;40509;32.858;-116.858;2023-07-28T01:02:56;97773.16;;;30.19;44.58
53900;BME280;40509;32.858;-116.858;2023-07-28T01:05:25;97775.59;;;30.21;44.68
53900;BME280;40509;32.858;-116.858;2023-07-28T01:08:02;97776.84;;;30.18;44.70
53900;BME280;40509;32.858;-116.858;2023-07-28T01:10:32;97770.50;;;30.19;44.55
53900;BME280;40509;32.858;-116.858;2023-07-28T01:12:59;97768.66;;;30.20;44.51
53900;BME280;40509;32.858;-116.858;2023-07-28T01:15:26;97776.66;;;30.20;44.64
53900;BME280;40509;32.858;-116.858;2023-07-28T01:17:53;97772.56;;;30.17;44.57
53900;BME280;40509;32.858;-116.858;2023-07-28T01:20:20;97778.91;;;30.16;44.82
53900;BME280;40509;32.858;-116.858;2023-07-28T01:23:09;97777.06;;;30.17;44.62
53900;BME280;40509;32.858;-116.858;2023-07-28T01:26:02;97776.03;;;30.18;44.63
53900;BME280;40509;32.858;-116.858;2023-07-28T01:28:34;97784.22;;;30.16;44.94
53900;BME280;40509;32.858;-116.858;2023-07-28T01:31:02;97775.44;;;30.16;44.90
53900;BME280;40509;32.858;-116.858;2023-07-28T01:33:29;97780.75;;;30.16;44.81
53900;BME280;40509;32.858;-116.858;2023-07-28T01:35:56;97789.34;;;30.18;44.94
53900;BME280;40509;32.858;-116.858;2023-07-28T01:38:25;97786.91;;;30.16;44.91
53900;BME280;40509;32.858;-116.858;2023-07-28T01:40:52;97788.53;;;30.17;45.01
53900;BME280;40509;32.858;-116.858;2023-07-28T01:43:19;97787.31;;;30.20;44.73
53900;BME280;40509;32.858;-116.858;2023-07-28T01:45:46;97788.53;;;30.17;44.97
53900;BME280;40509;32.858;-116.858;2023-07-28T01:48:13;97791.59;;;30.14;44.97
53900;BME280;40509;32.858;-116.858;2023-07-28T01:50:40;97795.06;;;30.21;44.93
53900;BME280;40509;32.858;-116.858;2023-07-28T01:53:06;97796.31;;;30.19;45.14
53900;BME280;40509;32.858;-116.858;2023-07-28T01:55:33;97785.25;;;30.15;44.88
53900;BME280;40509;32.858;-116.858;2023-07-28T01:58:01;97783.63;;;30.14;45.00
53900;BME280;40509;32.858;-116.858;2023-07-28T02:00:29;97789.78;;;30.15;44.90
53900;BME280;40509;32.858;-116.858;2023-07-28T02:02:56;97793.88;;;30.17;44.86
53900;BME280;40509;32.858;-116.858;2023-07-28T02:05:24;97790.59;;;30.15;44.90
53900;BME280;40509;32.858;-116.858;2023-07-28T02:07:51;97788.94;;;30.14;44.98
53900;BME280;40509;32.858;-116.858;2023-07-28T02:10:18;97791.19;;;30.17;44.82
53900;BME280;40509;32.858;-116.858;2023-07-28T02:12:45;97790.00;;;30.13;45.02
53900;BME280;40509;32.858;-116.858;2023-07-28T02:15:13;97784.22;;;30.16;44.93
53900;BME280;40509;32.858;-116.858;2023-07-28T02:17:39;97791.00;;;30.12;45.20
53900;BME280;40509;32.858;-116.858;2023-07-28T02:20:07;97781.59;;;30.09;45.09
53900;BME280;40509;32.858;-116.858;2023-07-28T02:22:37;97785.06;;;30.10;45.10
53900;BME280;40509;32.858;-116.858;2023-07-28T02:25:03;97782.41;;;30.10;45.29
53900;BME280;40509;32.858;-116.858;2023-07-28T02:27:31;97788.34;;;30.12;45.28
53900;BME280;40509;32.858;-116.858;2023-07-28T02:29:57;97783.63;;;30.14;45.27
53900;BME280;40509;32.858;-116.858;2023-07-28T02:32:25;97786.91;;;30.09;45.09
53900;BME280;40509;32.858;-116.858;2023-07-28T02:34:52;97786.50;;;30.13;45.07
53900;BME280;40509;32.858;-116.858;2023-07-28T02:37:20;97800.03;;;30.11;45.43
53900;BME280;40509;32.858;-116.858;2023-07-28T02:39:47;97800.03;;;30.11;44.99
53900;BME280;40509;32.858;-116.858;2023-07-28T02:42:15;97803.09;;;30.08;45.29
53900;BME280;40509;32.858;-116.858;2023-07-28T02:44:41;97808.00;;;30.11;45.13
53900;BME280;40509;32.858;-116.858;2023-07-28T02:47:08;97811.09;;;30.08;45.12
53900;BME280;40509;32.858;-116.858;2023-07-28T02:49:35;97813.13;;;30.06;45.33
53900;BME280;40509;32.858;-116.858;2023-07-28T02:52:02;97806.78;;;30.07;45.18
53900;BME280;40509;32.858;-116.858;2023-07-28T02:54:29;97802.91;;;30.09;45.22
53900;BME280;40509;32.858;-116.858;2023-07-28T02:56:56;97804.13;;;30.07;45.19
53900;BME280;40509;32.858;-116.858;2023-07-28T02:59:23;97809.44;;;30.07;45.24
53900;BME280;40509;32.858;-116.858;2023-07-28T03:01:50;97811.53;;;30.05;45.42
53900;BME280;40509;32.858;-116.858;2023-07-28T03:04:18;97810.31;;;30.01;45.33
53900;BME280;40509;32.858;-116.858;2023-07-28T03:07:14;97814.78;;;30.07;45.20
53900;BME280;40509;32.858;-116.858;2023-07-28T03:09:43;97815.63;;;30.01;45.47
53900;BME280;40509;32.858;-116.858;2023-07-28T03:12:11;97806.44;;;29.97;45.44
53900;BME280;40509;32.858;-116.858;2023-07-28T03:14:38;97805.34;;;30.04;45.48
53900;BME280;40509;32.858;-116.858;2023-07-28T03:17:05;97800.91;;;29.98;45.74
53900;BME280;40509;32.858;-116.858;2023-07-28T03:19:33;97807.66;;;30.01;45.47
53900;BME280;40509;32.858;-116.858;2023-07-28T03:21:59;97813.56;;;30.03;45.50
53900;BME280;40509;32.858;-116.858;2023-07-28T03:24:26;97808.88;;;29.98;45.61
53900;BME280;40509;32.858;-116.858;2023-07-28T03:26:53;97809.47;;;30.00;45.49
53900;BME280;40509;32.858;-116.858;2023-07-28T03:29:21;97806.00;;;30.00;45.52
53900;BME280;40509;32.858;-116.858;2023-07-28T03:31:48;97809.09;;;29.97;45.51
53900;BME280;40509;32.858;-116.858;2023-07-28T03:34:16;97808.25;;;29.96;45.49
53900;BME280;40509;32.858;-116.858;2023-07-28T03:36:43;97810.94;;;29.89;45.72
53900;BME280;40509;32.858;-116.858;2023-07-28T03:39:10;97810.72;;;29.91;45.94
53900;BME280;40509;32.858;-116.858;2023-07-28T03:41:37;97809.09;;;29.90;45.90
53900;BME280;40509;32.858;-116.858;2023-07-28T03:44:04;97808.28;;;29.89;45.83
53900;BME280;40509;32.858;-116.858;2023-07-28T03:46:31;97801.94;;;29.90;45.75
53900;BME280;40509;32.858;-116.858;2023-07-28T03:48:58;97800.50;;;29.88;45.94
53900;BME280;40509;32.858;-116.858;2023-07-28T03:51:26;97801.31;;;29.88;45.75
53900;BME280;40509;32.858;-116.858;2023-07-28T03:53:53;97802.53;;;29.92;45.80
53900;BME280;40509;32.858;-116.858;2023-07-28T03:56:19;97806.63;;;29.88;45.98
53900;BME280;40509;32.858;-116.858;2023-07-28T03:58:47;97811.78;;;29.90;45.72
53900;BME280;40509;32.858;-116.858;2023-07-28T04:01:13;97827.31;;;29.86;46.05
53900;BME280;40509;32.858;-116.858;2023-07-28T04:03:41;97824.44;;;29.88;45.96
53900;BME280;40509;32.858;-116.858;2023-07-28T04:06:11;97831.63;;;29.87;45.98
53900;BME280;40509;32.858;-116.858;2023-07-28T04:08:40;97823.66;;;29.87;45.86
53900;BME280;40509;32.858;-116.858;2023-07-28T04:11:08;97831.19;;;29.84;45.82
53900;BME280;40509;32.858;-116.858;2023-07-28T04:13:36;97835.31;;;29.86;45.81
53900;BME280;40509;32.858;-116.858;2023-07-28T04:16:03;97826.53;;;29.86;45.96
53900;BME280;40509;32.858;-116.858;2023-07-28T04:18:29;97828.13;;;29.87;45.72
53900;BME280;40509;32.858;-116.858;2023-07-28T04:21:00;97815.84;;;29.92;45.67
53900;BME280;40509;32.858;-116.858;2023-07-28T04:23:27;97831.63;;;29.87;45.98
53900;BME280;40509;32.858;-116.858;2023-07-28T04:25:54;97832.19;;;29.83;46.07
53900;BME280;40509;32.858;-116.858;2023-07-28T04:28:21;97833.84;;;29.77;45.97
53900;BME280;40509;32.858;-116.858;2023-07-28T04:30:50;97836.94;;;29.81;46.06
53900;BME280;40509;32.858;-116.858;2023-07-28T04:33:38;97835.06;;;29.81;45.86
53900;BME280;40509;32.858;-116.858;2023-07-28T04:36:05;97839.63;;;29.87;45.67
53900;BME280;40509;32.858;-116.858;2023-07-28T04:38:34;97847.38;;;29.82;46.01
53900;BME280;40509;32.858;-116.858;2023-07-28T04:41:01;97857.22;;;29.75;45.99
53900;BME280;40509;32.858;-116.858;2023-07-28T04:43:46;97870.28;;;29.83;45.69
53900;BME280;40509;32.858;-116.858;2023-07-28T04:46:13;97866.00;;;29.82;45.94
53900;BME280;40509;32.858;-116.858;2023-07-28T04:48:42;97860.47;;;29.77;45.98
53900;BME280;40509;32.858;-116.858;2023-07-28T04:51:29;97857.81;;;29.77;45.77
53900;BME280;40509;32.858;-116.858;2023-07-28T04:54:30;97850.25;;;29.74;46.02
53900;BME280;40509;32.858;-116.858;2023-07-28T04:56:57;97849.63;;;29.72;46.19
53900;BME280;40509;32.858;-116.858;2023-07-28T04:59:30;97853.72;;;29.74;45.86
53900;BME280;40509;32.858;-116.858;2023-07-28T05:01:57;97848.59;;;29.73;46.02
53900;BME280;40509;32.858;-116.858;2023-07-28T05:04:24;97842.69;;;29.71;46.03
53900;BME280;40509;32.858;-116.858;2023-07-28T05:06:51;97844.72;;;29.69;46.14
53900;BME280;40509;32.858;-116.858;2023-07-28T05:09:18;97846.56;;;29.75;45.90
53900;BME280;40509;32.858;-116.858;2023-07-28T05:11:45;97850.03;;;29.69;45.87
53900;BME280;40509;32.858;-116.858;2023-07-28T05:14:12;97848.41;;;29.68;45.93
53900;BME280;40509;32.858;-116.858;2023-07-28T05:16:40;97848.00;;;29.64;46.15
53900;BME280;40509;32.858;-116.858;2023-07-28T05:19:10;97848.59;;;29.66;46.03
53900;BME280;40509;32.858;-116.858;2023-07-28T05:22:09;97853.72;;;29.68;45.82
53900;BME280;40509;32.858;-116.858;2023-07-28T05:24:44;97854.56;;;29.68;45.89
53900;BME280;40509;32.858;-116.858;2023-07-28T05:27:12;97850.25;;;29.67;46.05
53900;BME280;40509;32.858;-116.858;2023-07-28T05:29:41;97842.06;;;29.62;46.16
53900;BME280;40509;32.858;-116.858;2023-07-28T05:32:08;97843.06;;;29.61;46.00
53900;BME280;40509;32.858;-116.858;2023-07-28T05:34:43;97842.91;;;29.56;46.01
53900;BME280;40509;32.858;-116.858;2023-07-28T05:37:10;97840.41;;;29.54;46.29
53900;BME280;40509;32.858;-116.858;2023-07-28T05:39:37;97842.69;;;29.51;46.32
53900;BME280;40509;32.858;-116.858;2023-07-28T05:42:04;97842.91;;;29.56;46.07
53900;BME280;40509;32.858;-116.858;2023-07-28T05:44:32;97832.44;;;29.54;46.21
53900;BME280;40509;32.858;-116.858;2023-07-28T05:46:58;97835.72;;;29.63;45.80
53900;BME280;40509;32.858;-116.858;2023-07-28T05:49:25;97828.34;;;29.65;45.76
53900;BME280;40509;32.858;-116.858;2023-07-28T05:51:52;97828.16;;;29.53;46.13
53900;BME280;40509;32.858;-116.858;2023-07-28T05:54:19;97834.50;;;29.59;45.95
53900;BME280;40509;32.858;-116.858;2023-07-28T05:56:46;97829.41;;;29.57;46.04
53900;BME280;40509;32.858;-116.858;2023-07-28T05:59:13;97823.03;;;29.58;45.85
53900;BME280;40509;32.858;-116.858;2023-07-28T06:01:40;97814.66;;;29.48;45.91
53900;BME280;40509;32.858;-116.858;2023-07-28T06:04:12;97813.81;;;29.54;45.96
53900;BME280;40509;32.858;-116.858;2023-07-28T06:06:44;97812.81;;;29.49;46.15
53900;BME280;40509;32.858;-116.858;2023-07-28T06:09:13;97804.22;;;29.53;46.08
53900;BME280;40509;32.858;-116.858;2023-07-28T06:11:41;97810.38;;;29.47;46.12
53900;BME280;40509;32.858;-116.858;2023-07-28T06:14:08;97812.38;;;29.52;45.91
53900;BME280;40509;32.858;-116.858;2023-07-28T06:16:37;97809.94;;;29.43;46.13
53900;BME280;40509;32.858;-116.858;2023-07-28T06:19:03;97818.97;;;29.49;46.10
53900;BME280;40509;32.858;-116.858;2023-07-28T06:21:36;97819.34;;;29.53;45.79
53900;BME280;40509;32.858;-116.858;2023-07-28T06:24:03;97816.91;;;29.51;45.93
53900;BME280;40509;32.858;-116.858;2023-07-28T06:26:30;97819.56;;;29.38;46.02
53900;BME280;40509;32.858;-116.858;2023-07-28T06:28:56;97820.41;;;29.38;46.08
53900;BME280;40509;32.858;-116.858;2023-07-28T06:31:24;97821.22;;;29.39;46.20
53900;BME280;40509;32.858;-116.858;2023-07-28T06:33:51;97824.88;;;29.38;46.06
53900;BME280;40509;32.858;-116.858;2023-07-28T06:36:18;97820.41;;;29.32;46.16
53900;BME280;40509;32.858;-116.858;2023-07-28T06:38:45;97812.00;;;29.35;45.94
53900;BME280;40509;32.858;-116.858;2023-07-28T06:41:14;97823.25;;;29.37;46.00
53900;BME280;40509;32.858;-116.858;2023-07-28T06:43:43;97823.66;;;29.34;45.98
53900;BME280;40509;32.858;-116.858;2023-07-28T06:46:10;97821.00;;;29.34;46.14
53900;BME280;40509;32.858;-116.858;2023-07-28T06:48:38;97814.47;;;29.30;45.91
53900;BME280;40509;32.858;-116.858;2023-07-28T06:51:05;97811.38;;;29.33;45.95
53900;BME280;40509;32.858;-116.858;2023-07-28T06:53:32;97806.06;;;29.33;45.99
53900;BME280;40509;32.858;-116.858;2023-07-28T06:56:00;97808.34;;;29.29;45.86
53900;BME280;40509;32.858;-116.858;2023-07-28T06:58:28;97802.16;;;29.22;46.13
53900;BME280;40509;32.858;-116.858;2023-07-28T07:00:54;97802.81;;;29.31;45.73
53900;BME280;40509;32.858;-116.858;2023-07-28T07:03:22;97805.69;;;29.29;45.80
53900;BME280;40509;32.858;-116.858;2023-07-28T07:05:50;97800.31;;;29.22;45.96
53900;BME280;40509;32.858;-116.858;2023-07-28T07:08:17;97801.78;;;29.25;45.81
53900;BME280;40509;32.858;-116.858;2023-07-28T07:10:50;97797.66;;;29.22;45.93
53900;BME280;40509;32.858;-116.858;2023-07-28T07:13:17;97801.13;;;29.23;46.02
53900;BME280;40509;32.858;-116.858;2023-07-28T07:15:44;97803.78;;;29.23;46.05
53900;BME280;40509;32.858;-116.858;2023-07-28T07:18:11;97803.19;;;29.21;45.77
53900;BME280;40509;32.858;-116.858;2023-07-28T07:20:39;97810.53;;;29.12;46.29
53900;BME280;40509;32.858;-116.858;2023-07-28T07:23:06;97806.06;;;29.13;46.01
53900;BME280;40509;32.858;-116.858;2023-07-28T07:25:32;97809.94;;;29.03;46.24
53900;BME280;40509;32.858;-116.858;2023-07-28T07:28:03;97810.94;;;29.09;45.90
53900;BME280;40509;32.858;-116.858;2023-07-28T07:30:33;97815.03;;;29.05;46.29
53900;BME280;40509;32.858;-116.858;2023-07-28T07:33:00;97808.06;;;29.04;46.15
53900;BME280;40509;32.858;-116.858;2023-07-28T07:35:27;97808.28;;;29.09;45.99
53900;BME280;40509;32.858;-116.858;2023-07-28T07:37:54;97804.41;;;29.05;46.02
53900;BME280;40509;32.858;-116.858;2023-07-28T07:40:21;97801.97;;;29.10;45.88
53900;BME280;40509;32.858;-116.858;2023-07-28T07:42:49;97810.53;;;29.12;45.69
53900;BME280;40509;32.858;-116.858;2023-07-28T07:45:16;97792.56;;;29.14;45.91
53900;BME280;40509;32.858;-116.858;2023-07-28T07:47:43;97810.94;;;29.09;45.93
53900;BME280;40509;32.858;-116.858;2023-07-28T07:50:10;97806.25;;;29.04;46.01
53900;BME280;40509;32.858;-116.858;2023-07-28T07:52:38;97808.72;;;29.06;45.91
53900;BME280;40509;32.858;-116.858;2023-07-28T07:55:05;97802.53;;;28.99;45.83
53900;BME280;40509;32.858;-116.858;2023-07-28T07:57:32;97801.53;;;29.00;45.91
53900;BME280;40509;32.858;-116.858;2023-07-28T07:59:59;97809.69;;;28.91;46.16
53900;BME280;40509;32.858;-116.858;2023-07-28T08:02:25;97798.88;;;28.93;46.15
53900;BME280;40509;32.858;-116.858;2023-07-28T08:04:52;97802.34;;;28.93;45.88
53900;BME280;40509;32.858;-116.858;2023-07-28T08:07:22;97797.22;;;28.92;46.05
53900;BME280;40509;32.858;-116.858;2023-07-28T08:09:50;97798.47;;;28.89;46.03
53900;BME280;40509;32.858;-116.858;2023-07-28T08:12:17;97801.72;;;28.91;46.05
53900;BME280;40509;32.858;-116.858;2023-07-28T08:14:44;97791.91;;;28.85;46.08
53900;BME280;40509;32.858;-116.858;2023-07-28T08:17:12;97786.19;;;28.88;45.98
53900;BME280;40509;32.858;-116.858;2023-07-28T08:19:39;97776.78;;;28.86;46.32
53900;BME280;40509;32.858;-116.858;2023-07-28T08:22:06;97778.81;;;28.77;46.23
53900;BME280;40509;32.858;-116.858;2023-07-28T08:24:33;97776.59;;;28.87;45.99
53900;BME280;40509;32.858;-116.858;2023-07-28T08:27:00;97778.44;;;28.87;46.04
53900;BME280;40509;32.858;-116.858;2023-07-28T08:29:27;97777.19;;;28.83;46.02
53900;BME280;40509;32.858;-116.858;2023-07-28T08:31:54;97776.78;;;28.79;46.06
53900;BME280;40509;32.858;-116.858;2023-07-28T08:34:21;97777.59;;;28.80;46.03
53900;BME280;40509;32.858;-116.858;2023-07-28T08:36:47;97781.66;;;28.75;45.83
53900;BME280;40509;32.858;-116.858;2023-07-28T08:39:14;97776.78;;;28.79;45.84
53900;BME280;40509;32.858;-116.858;2023-07-28T08:41:41;97770.66;;;28.72;45.94
53900;BME280;40509;32.858;-116.858;2023-07-28T08:44:08;97773.09;;;28.73;46.08
53900;BME280;40509;32.858;-116.858;2023-07-28T08:46:35;97776.13;;;28.70;46.32
53900;BME280;40509;32.858;-116.858;2023-07-28T08:49:02;97773.69;;;28.69;46.11
53900;BME280;40509;32.858;-116.858;2023-07-28T08:51:29;97761.44;;;28.74;45.86
53900;BME280;40509;32.858;-116.858;2023-07-28T08:53:56;97758.38;;;28.71;45.95
53900;BME280;40509;32.858;-116.858;2023-07-28T08:56:23;97756.75;;;28.76;45.93
53900;BME280;40509;32.858;-116.858;2023-07-28T08:58:56;97754.09;;;28.76;45.92
53900;BME280;40509;32.858;-116.858;2023-07-28T09:01:23;97758.97;;;28.73;45.72
53900;BME280;40509;32.858;-116.858;2023-07-28T09:03:50;97747.13;;;28.69;45.74
53900;BME280;40509;32.858;-116.858;2023-07-28T09:06:17;97750.41;;;28.71;45.70
53900;BME280;40509;32.858;-116.858;2023-07-28T09:08:45;97742.84;;;28.68;46.13
53900;BME280;40509;32.858;-116.858;2023-07-28T09:11:12;97744.47;;;28.69;45.91
53900;BME280;40509;32.858;-116.858;2023-07-28T09:13:41;97739.13;;;28.62;45.89
53900;BME280;40509;32.858;-116.858;2023-07-28T09:16:17;97736.88;;;28.59;46.14
53900;BME280;40509;32.858;-116.858;2023-07-28T09:18:44;97734.41;;;28.57;45.79
53900;BME280;40509;32.858;-116.858;2023-07-28T09:21:18;97736.66;;;28.54;46.09
53900;BME280;40509;32.858;-116.858;2023-07-28T09:23:47;97729.72;;;28.59;45.84
53900;BME280;40509;32.858;-116.858;2023-07-28T09:26:14;97717.28;;;28.60;45.82
53900;BME280;40509;32.858;-116.858;2023-07-28T09:28:42;97723.38;;;28.60;45.52
53900;BME280;40509;32.858;-116.858;2023-07-28T09:31:08;97722.97;;;28.50;45.86
53900;BME280;40509;32.858;-116.858;2023-07-28T09:33:37;97720.31;;;28.50;45.84
53900;BME280;40509;32.858;-116.858;2023-07-28T09:36:08;97717.06;;;28.55;45.88
53900;BME280;40509;32.858;-116.858;2023-07-28T09:38:36;97708.25;;;28.48;45.69
53900;BME280;40509;32.858;-116.858;2023-07-28T09:41:03;97714.81;;;28.52;46.01
53900;BME280;40509;32.858;-116.858;2023-07-28T09:43:32;97709.28;;;28.53;45.87
53900;BME280;40509;32.858;-116.858;2023-07-28T09:45:58;97708.06;;;28.49;45.81
53900;BME280;40509;32.858;-116.858;2023-07-28T09:48:25;97706.41;;;28.48;45.64
53900;BME280;40509;32.858;-116.858;2023-07-28T09:50:55;97697.22;;;28.44;45.77
53900;BME280;40509;32.858;-116.858;2023-07-28T09:53:24;97696.81;;;28.47;45.91
53900;BME280;40509;32.858;-116.858;2023-07-28T09:55:54;97695.38;;;28.51;45.55
53900;BME280;40509;32.858;-116.858;2023-07-28T09:58:21;97700.50;;;28.46;45.63
53900;BME280;40509;32.858;-116.858;2023-07-28T10:00:50;97691.69;;;28.46;45.74
53900;BME280;40509;32.858;-116.858;2023-07-28T10:03:17;97690.06;;;28.44;45.40
53900;BME280;40509;32.858;-116.858;2023-07-28T10:05:44;97694.78;;;28.49;45.57
53900;BME280;40509;32.858;-116.858;2023-07-28T10:08:11;97699.88;;;28.44;45.71
53900;BME280;40509;32.858;-116.858;2023-07-28T10:10:39;97701.31;;;28.40;45.54
53900;BME280;40509;32.858;-116.858;2023-07-28T10:13:06;97694.56;;;28.37;45.71
53900;BME280;40509;32.858;-116.858;2023-07-28T10:15:46;97686.00;;;28.35;45.70
53900;BME280;40509;32.858;-116.858;2023-07-28T10:18:14;97693.75;;;28.37;45.75
53900;BME280;40509;32.858;-116.858;2023-07-28T10:20:42;97694.75;;;28.36;46.01
53900;BME280;40509;32.858;-116.858;2023-07-28T10:23:14;97682.28;;;28.30;45.98
53900;BME280;40509;32.858;-116.858;2023-07-28T10:25:41;97692.09;;;28.36;45.95
53900;BME280;40509;32.858;-116.858;2023-07-28T10:31:08;97684.94;;;28.30;45.67
53900;BME280;40509;32.858;-116.858;2023-07-28T10:36:12;97687.19;;;28.26;45.83
53900;BME280;40509;32.858;-116.858;2023-07-28T10:38:39;97677.38;;;28.26;45.78
53900;BME280;40509;32.858;-116.858;2023-07-28T10:41:12;97674.13;;;28.31;45.55
53900;BME280;40509;32.858;-116.858;2023-07-28T10:43:40;97676.38;;;28.27;45.59
53900;BME280;40509;32.858;-116.858;2023-07-28T10:46:08;97676.78;;;28.24;45.85
53900;BME280;40509;32.858;-116.858;2023-07-28T10:48:36;97670.03;;;28.22;45.86
53900;BME280;40509;32.858;-116.858;2023-07-28T10:51:03;97662.28;;;28.20;45.87
53900;BME280;40509;32.858;-116.858;2023-07-28T10:53:31;97673.69;;;28.21;45.72
53900;BME280;40509;32.858;-116.858;2023-07-28T10:56:00;97673.50;;;28.22;45.68
53900;BME280;40509;32.858;-116.858;2023-07-28T10:58:27;97666.16;;;28.24;45.47
53900;BME280;40509;32.858;-116.858;2023-07-28T11:00:53;97670.22;;;28.20;45.47
53900;BME280;40509;32.858;-116.858;2023-07-28T11:03:21;97666.34;;;28.16;45.94
53900;BME280;40509;32.858;-116.858;2023-07-28T11:05:48;97669.38;;;28.13;46.07
53900;BME280;40509;32.858;-116.858;2023-07-28T11:08:16;97672.44;;;28.10;46.00
53900;BME280;40509;32.858;-116.858;2023-07-28T11:10:43;97677.13;;;28.15;45.74
53900;BME280;40509;32.858;-116.858;2023-07-28T11:13:10;97679.63;;;28.16;45.50
53900;BME280;40509;32.858;-116.858;2023-07-28T11:15:37;97679.59;;;28.09;45.65
53900;BME280;40509;32.858;-116.858;2023-07-28T11:18:04;97680.41;;;28.10;45.60
53900;BME280;40509;32.858;-116.858;2023-07-28T11:20:31;97686.94;;;28.07;45.50
53900;BME280;40509;32.858;-116.858;2023-07-28T11:23:01;97677.13;;;28.08;45.49
53900;BME280;40509;32.858;-116.858;2023-07-28T11:25:30;97683.88;;;28.10;45.39
53900;BME280;40509;32.858;-116.858;2023-07-28T11:27:57;97678.94;;;28.01;45.71
53900;BME280;40509;32.858;-116.858;2023-07-28T11:30:27;97692.44;;;28.06;45.37
53900;BME280;40509;32.858;-116.858;2023-07-28T11:32:54;97697.94;;;28.04;45.04
53900;BME280;40509;32.858;-116.858;2023-07-28T11:35:21;97700.81;;;28.03;45.51
53900;BME280;40509;32.858;-116.858;2023-07-28T11:37:49;97699.16;;;28.02;45.70
53900;BME280;40509;32.858;-116.858;2023-07-28T11:40:17;97689.56;;;28.01;45.63
53900;BME280;40509;32.858;-116.858;2023-07-28T11:42:45;97696.50;;;28.02;45.72
53900;BME280;40509;32.858;-116.858;2023-07-28T11:45:12;97697.69;;;27.99;45.36
53900;BME280;40509;32.858;-116.858;2023-07-28T11:47:39;97689.94;;;27.98;45.46
53900;BME280;40509;32.858;-116.858;2023-07-28T11:50:06;97695.25;;;27.98;45.72
53900;BME280;40509;32.858;-116.858;2023-07-28T11:52:34;97695.25;;;27.98;45.60
53900;BME280;40509;32.858;-116.858;2023-07-28T11:55:02;97706.66;;;27.98;45.29
53900;BME280;40509;32.858;-116.858;2023-07-28T11:57:31;97703.59;;;27.95;45.40
53900;BME280;40509;32.858;-116.858;2023-07-28T11:59:59;97713.38;;;27.94;45.45
53900;BME280;40509;32.858;-116.858;2023-07-28T12:02:26;97715.22;;;27.93;45.16
53900;BME280;40509;32.858;-116.858;2023-07-28T12:04:54;97719.28;;;27.89;45.38
53900;BME280;40509;32.858;-116.858;2023-07-28T12:07:29;97720.31;;;27.88;45.60
53900;BME280;40509;32.858;-116.858;2023-07-28T12:09:56;97715.81;;;27.96;45.42
53900;BME280;40509;32.858;-116.858;2023-07-28T12:12:27;97726.25;;;27.90;45.04
53900;BME280;40509;32.858;-116.858;2023-07-28T12:14:58;97735.22;;;27.89;45.19
53900;BME280;40509;32.858;-116.858;2023-07-28T12:17:31;97742.53;;;27.87;45.52
53900;BME280;40509;32.858;-116.858;2023-07-28T12:19:58;97750.13;;;27.90;45.26
53900;BME280;40509;32.858;-116.858;2023-07-28T12:22:26;97745.38;;;27.86;45.64
53900;BME280;40509;32.858;-116.858;2023-07-28T12:24:54;97744.56;;;27.85;45.14
53900;BME280;40509;32.858;-116.858;2023-07-28T12:27:20;97741.28;;;27.83;44.93
53900;BME280;40509;32.858;-116.858;2023-07-28T12:29:50;97743.75;;;27.85;45.30
53900;BME280;40509;32.858;-116.858;2023-07-28T12:32:17;97740.69;;;27.81;44.97
53900;BME280;40509;32.858;-116.858;2023-07-28T12:34:44;97739.47;;;27.84;45.46
53900;BME280;40509;32.858;-116.858;2023-07-28T12:37:11;97731.06;;;27.80;45.16
53900;BME280;40509;32.858;-116.858;2023-07-28T12:39:38;97744.94;;;27.82;45.12
53900;BME280;40509;32.858;-116.858;2023-07-28T12:42:08;97734.34;;;27.82;45.07